sensor_id;sensor_type;location;lat;lon;timestamp;pressure;altitude;pressure_sealevel;temperature;humidity
43814;BME280;29669;55.706;37.656;2023-12-07T00:01:54;101880.44;;;-6.69;76.65
43814;BME280;29669;55.706;37.656;2023-12-07T00:04:21;101886.31;;;-6.69;76.61
43814;BME280;29669;55.706;37.656;2023-12-07T00:06:49;101877.94;;;-6.74;76.71
43814;BME280;29669;55.706;37.656;2023-12-07T00:09:17;101882.13;;;-6.73;76.66
43814;BME280;29669;55.706;37.656;2023-12-07T00:11:45;101885.50;;;-6.71;76.65
43814;BME280;29669;55.706;37.656;2023-12-07T00:14:12;101881.28;;;-6.72;76.59
43814;BME280;29669;55.706;37.656;2023-12-07T00:16:40;101888.00;;;-6.71;76.69
43814;BME280;29669;55.706;37.656;2023-12-07T00:19:07;101883.78;;;-6.67;76.86
43814;BME280;29669;55.706;37.656;2023-12-07T00:21:38;101887.16;;;-6.67;76.69
43814;BME280;29669;55.706;37.656;2023-12-07T00:24:05;101893.06;;;-6.65;76.83
43814;BME280;29669;55.706;37.656;2023-12-07T00:26:33;101896.41;;;-6.61;76.80
43814;BME280;29669;55.706;37.656;2023-12-07T00:29:01;101888.03;;;-6.66;76.71
43814;BME280;29669;55.706;37.656;2023-12-07T00:31:28;101897.28;;;-6.67;76.50
43814;BME280;29669;55.706;37.656;2023-12-07T00:33:56;101895.59;;;-6.71;76.73
43814;BME280;29669;55.706;37.656;2023-12-07T00:36:24;101898.97;;;-6.72;76.62
43814;BME280;29669;55.706;37.656;2023-12-07T00:38:51;101898.13;;;-6.79;76.39
43814;BME280;29669;55.706;37.656;2023-12-07T00:41:19;101889.72;;;-6.82;76.58
43814;BME280;29669;55.706;37.656;2023-12-07T00:43:46;101896.47;;;-6.84;76.64
43814;BME280;29669;55.706;37.656;2023-12-07T00:46:15;101902.34;;;-6.88;76.56
43814;BME280;29669;55.706;37.656;2023-12-07T00:48:42;101895.63;;;-6.92;76.82
43814;BME280;29669;55.706;37.656;2023-12-07T00:51:10;101899.84;;;-6.90;76.89
43814;BME280;29669;55.706;37.656;2023-12-07T00:53:37;101908.25;;;-6.88;76.88
43814;BME280;29669;55.706;37.656;2023-12-07T00:56:06;101903.19;;;-6.91;77.00
43814;BME280;29669;55.706;37.656;2023-12-07T00:58:33;101896.47;;;-6.93;76.86
43814;BME280;29669;55.706;37.656;2023-12-07T01:01:01;101901.50;;;-6.92;76.91
43814;BME280;29669;55.706;37.656;2023-12-07T01:03:29;101898.16;;;-6.94;76.84
43814;BME280;29669;55.706;37.656;2023-12-07T01:05:57;101898.16;;;-6.98;76.89
43814;BME280;29669;55.706;37.656;2023-12-07T01:08:25;101900.66;;;-6.98;76.83
43814;BME280;29669;55.706;37.656;2023-12-07T01:10:52;101909.09;;;-6.99;76.80
43814;BME280;29669;55.706;37.656;2023-12-07T01:13:20;101916.66;;;-6.99;77.05
43814;BME280;29669;55.706;37.656;2023-12-07T01:15:47;101913.31;;;-6.95;77.00
43814;BME280;29669;55.706;37.656;2023-12-07T01:18:15;101914.97;;;-6.91;77.06
43814;BME280;29669;55.706;37.656;2023-12-07T01:20:43;101914.16;;;-6.87;77.03
43814;BME280;29669;55.706;37.656;2023-12-07T01:23:10;101915.81;;;-6.82;77.08
43814;BME280;29669;55.706;37.656;2023-12-07T01:25:41;101915.78;;;-6.77;76.94
43814;BME280;29669;55.706;37.656;2023-12-07T01:28:09;101921.69;;;-6.75;76.99
43814;BME280;29669;55.706;37.656;2023-12-07T01:30:36;101918.31;;;-6.71;77.14
43814;BME280;29669;55.706;37.656;2023-12-07T01:33:04;101924.22;;;-6.75;77.14
43814;BME280;29669;55.706;37.656;2023-12-07T01:35:32;101924.22;;;-6.75;77.17
43814;BME280;29669;55.706;37.656;2023-12-07T01:37:59;101919.16;;;-6.77;77.12
43814;BME280;29669;55.706;37.656;2023-12-07T01:40:27;101931.78;;;-6.74;77.09
43814;BME280;29669;55.706;37.656;2023-12-07T01:42:54;101931.78;;;-6.70;77.10
43814;BME280;29669;55.706;37.656;2023-12-07T01:45:22;101937.69;;;-6.70;76.96
43814;BME280;29669;55.706;37.656;2023-12-07T01:47:51;101929.25;;;-6.70;77.07
43814;BME280;29669;55.706;37.656;2023-12-07T01:50:21;101942.72;;;-6.67;77.25
43814;BME280;29669;55.706;37.656;2023-12-07T01:53:00;101936.81;;;-6.63;77.02
43814;BME280;29669;55.706;37.656;2023-12-07T01:55:28;101939.38;;;-6.70;76.92
43814;BME280;29669;55.706;37.656;2023-12-07T01:57:57;101942.72;;;-6.72;76.96
43814;BME280;29669;55.706;37.656;2023-12-07T02:00:26;101949.44;;;-6.69;76.96
43814;BME280;29669;55.706;37.656;2023-12-07T02:02:55;101949.44;;;-6.67;77.08
43814;BME280;29669;55.706;37.656;2023-12-07T02:05:22;101949.44;;;-6.67;77.16
43814;BME280;29669;55.706;37.656;2023-12-07T02:07:51;101957.84;;;-6.64;76.92
43814;BME280;29669;55.706;37.656;2023-12-07T02:10:19;101951.13;;;-6.62;77.12
43814;BME280;29669;55.706;37.656;2023-12-07T02:12:47;101949.44;;;-6.60;77.26
43814;BME280;29669;55.706;37.656;2023-12-07T02:15:16;101957.84;;;-6.58;77.12
43814;BME280;29669;55.706;37.656;2023-12-07T02:17:55;101955.34;;;-6.55;77.06
43814;BME280;29669;55.706;37.656;2023-12-07T02:20:59;101961.22;;;-6.57;77.13
43814;BME280;29669;55.706;37.656;2023-12-07T02:23:32;101965.44;;;-6.61;77.03
43814;BME280;29669;55.706;37.656;2023-12-07T02:26:18;101960.41;;;-6.68;76.80
43814;BME280;29669;55.706;37.656;2023-12-07T02:28:48;101973.03;;;-6.73;77.23
43814;BME280;29669;55.706;37.656;2023-12-07T02:31:15;101965.44;;;-6.75;77.11
43814;BME280;29669;55.706;37.656;2023-12-07T02:33:43;101973.03;;;-6.70;77.34
43814;BME280;29669;55.706;37.656;2023-12-07T02:36:12;101978.09;;;-6.70;77.29
43814;BME280;29669;55.706;37.656;2023-12-07T02:38:42;101978.06;;;-6.68;77.22
43814;BME280;29669;55.706;37.656;2023-12-07T02:41:12;101973.84;;;-6.69;77.17
43814;BME280;29669;55.706;37.656;2023-12-07T02:43:39;101967.16;;;-6.80;77.18
43814;BME280;29669;55.706;37.656;2023-12-07T02:46:07;101969.69;;;-6.80;77.31
43814;BME280;29669;55.706;37.656;2023-12-07T02:48:35;101966.28;;;-6.83;77.12
43814;BME280;29669;55.706;37.656;2023-12-07T02:51:03;101970.50;;;-6.90;77.12
43814;BME280;29669;55.706;37.656;2023-12-07T02:53:32;101976.41;;;-6.95;77.21
43814;BME280;29669;55.706;37.656;2023-12-07T02:55:59;101965.44;;;-7.03;77.23
43814;BME280;29669;55.706;37.656;2023-12-07T02:58:27;101973.88;;;-7.03;77.47
43814;BME280;29669;55.706;37.656;2023-12-07T03:00:54;101977.25;;;-7.08;77.30
43814;BME280;29669;55.706;37.656;2023-12-07T03:03:22;101982.25;;;-7.19;77.18
43814;BME280;29669;55.706;37.656;2023-12-07T03:05:49;101976.34;;;-7.28;77.63
43814;BME280;29669;55.706;37.656;2023-12-07T03:08:17;101974.69;;;-7.26;77.79
43814;BME280;29669;55.706;37.656;2023-12-07T03:10:45;101983.94;;;-7.21;77.89
43814;BME280;29669;55.706;37.656;2023-12-07T03:13:12;101984.78;;;-7.14;77.89
43814;BME280;29669;55.706;37.656;2023-12-07T03:15:40;101990.66;;;-7.15;77.64
43814;BME280;29669;55.706;37.656;2023-12-07T03:18:08;101997.41;;;-7.14;77.45
43814;BME280;29669;55.706;37.656;2023-12-07T03:20:36;101999.94;;;-7.17;77.27
43814;BME280;29669;55.706;37.656;2023-12-07T03:23:03;102002.44;;;-7.23;77.18
43814;BME280;29669;55.706;37.656;2023-12-07T03:25:31;102013.38;;;-7.24;77.36
43814;BME280;29669;55.706;37.656;2023-12-07T03:27:59;102010.84;;;-7.27;77.33
43814;BME280;29669;55.706;37.656;2023-12-07T03:30:27;102017.56;;;-7.26;77.31
43814;BME280;29669;55.706;37.656;2023-12-07T03:32:54;102020.09;;;-7.29;77.35
43814;BME280;29669;55.706;37.656;2023-12-07T03:35:22;102015.03;;;-7.29;77.54
43814;BME280;29669;55.706;37.656;2023-12-07T03:37:49;102015.06;;;-7.32;77.51
43814;BME280;29669;55.706;37.656;2023-12-07T03:40:17;102014.19;;;-7.30;77.53
43814;BME280;29669;55.706;37.656;2023-12-07T03:42:45;102029.34;;;-7.21;77.45
43814;BME280;29669;55.706;37.656;2023-12-07T03:45:23;102028.50;;;-7.15;77.67
43814;BME280;29669;55.706;37.656;2023-12-07T03:47:51;102034.41;;;-7.18;77.39
43814;BME280;29669;55.706;37.656;2023-12-07T03:50:19;102035.25;;;-7.20;77.50
43814;BME280;29669;55.706;37.656;2023-12-07T03:52:46;102026.84;;;-7.19;77.43
43814;BME280;29669;55.706;37.656;2023-12-07T03:55:14;102032.72;;;-7.20;77.64
43814;BME280;29669;55.706;37.656;2023-12-07T03:57:41;102016.75;;;-7.27;77.77
43814;BME280;29669;55.706;37.656;2023-12-07T04:00:11;102031.88;;;-7.16;77.77
43814;BME280;29669;55.706;37.656;2023-12-07T04:02:39;102034.41;;;-7.19;77.38
43814;BME280;29669;55.706;37.656;2023-12-07T04:05:13;102029.34;;;-7.24;77.57
43814;BME280;29669;55.706;37.656;2023-12-07T04:07:42;102036.06;;;-7.26;77.43
43814;BME280;29669;55.706;37.656;2023-12-07T04:10:10;102030.19;;;-7.32;77.25
43814;BME280;29669;55.706;37.656;2023-12-07T04:12:38;102046.16;;;-7.27;77.43
43814;BME280;29669;55.706;37.656;2023-12-07T04:15:06;102045.34;;;-7.23;77.75
43814;BME280;29669;55.706;37.656;2023-12-07T04:17:33;102050.41;;;-7.16;77.43
43814;BME280;29669;55.706;37.656;2023-12-07T04:20:01;102051.25;;;-7.14;77.27
43814;BME280;29669;55.706;37.656;2023-12-07T04:22:29;102051.25;;;-7.12;77.10
43814;BME280;29669;55.706;37.656;2023-12-07T04:24:57;102043.66;;;-7.15;77.01
43814;BME280;29669;55.706;37.656;2023-12-07T04:27:25;102048.72;;;-7.18;76.90
43814;BME280;29669;55.706;37.656;2023-12-07T04:29:52;102047.84;;;-7.19;76.89
43814;BME280;29669;55.706;37.656;2023-12-07T04:32:21;102045.34;;;-7.23;76.80
43814;BME280;29669;55.706;37.656;2023-12-07T04:34:49;102047.84;;;-7.29;76.59
43814;BME280;29669;55.706;37.656;2023-12-07T04:37:16;102051.13;;;-7.50;76.56
43814;BME280;29669;55.706;37.656;2023-12-07T04:39:44;102046.91;;;-7.51;76.90
43814;BME280;29669;55.706;37.656;2023-12-07T04:42:11;102052.81;;;-7.47;76.99
43814;BME280;29669;55.706;37.656;2023-12-07T04:44:39;102064.59;;;-7.45;76.88
43814;BME280;29669;55.706;37.656;2023-12-07T04:47:09;102057.03;;;-7.45;76.88
43814;BME280;29669;55.706;37.656;2023-12-07T04:49:40;102052.81;;;-7.50;76.80
43814;BME280;29669;55.706;37.656;2023-12-07T04:52:07;102059.56;;;-7.48;76.71
43814;BME280;29669;55.706;37.656;2023-12-07T04:54:35;102069.63;;;-7.54;76.33
43814;BME280;29669;55.706;37.656;2023-12-07T04:57:03;102065.34;;;-7.65;76.13
43814;BME280;29669;55.706;37.656;2023-12-07T04:59:30;102071.19;;;-7.77;76.11
43814;BME280;29669;55.706;37.656;2023-12-07T05:01:58;102070.28;;;-7.87;76.13
43814;BME280;29669;55.706;37.656;2023-12-07T05:04:25;102072.75;;;-7.97;76.09
43814;BME280;29669;55.706;37.656;2023-12-07T05:06:53;102083.59;;;-8.09;76.03
43814;BME280;29669;55.706;37.656;2023-12-07T05:09:20;102073.44;;;-8.21;76.46
43814;BME280;29669;55.706;37.656;2023-12-07T05:11:49;102076.75;;;-8.32;76.52
43814;BME280;29669;55.706;37.656;2023-12-07T05:14:16;102077.53;;;-8.38;76.73
43814;BME280;29669;55.706;37.656;2023-12-07T05:16:44;102080.00;;;-8.47;76.54
43814;BME280;29669;55.706;37.656;2023-12-07T05:19:13;102086.63;;;-8.61;76.74
43814;BME280;29669;55.706;37.656;2023-12-07T05:21:40;102089.88;;;-8.70;76.91
43814;BME280;29669;55.706;37.656;2023-12-07T05:24:08;102084.72;;;-8.82;76.86
43814;BME280;29669;55.706;37.656;2023-12-07T05:26:36;102094.72;;;-8.89;76.91
43814;BME280;29669;55.706;37.656;2023-12-07T05:29:04;102088.72;;;-9.02;76.92
43814;BME280;29669;55.706;37.656;2023-12-07T05:31:33;102094.53;;;-9.10;77.12
43814;BME280;29669;55.706;37.656;2023-12-07T05:34:00;102101.16;;;-9.14;77.35
43814;BME280;29669;55.706;37.656;2023-12-07T05:36:28;102112.94;;;-9.11;77.38
43814;BME280;29669;55.706;37.656;2023-12-07T05:38:56;102116.31;;;-9.08;77.82
43814;BME280;29669;55.706;37.656;2023-12-07T05:41:24;102122.22;;;-9.06;77.58
43814;BME280;29669;55.706;37.656;2023-12-07T05:43:52;102113.81;;;-9.08;77.47
43814;BME280;29669;55.706;37.656;2023-12-07T05:46:22;102111.34;;;-9.03;77.23
43814;BME280;29669;55.706;37.656;2023-12-07T05:48:50;102118.06;;;-9.02;77.28
43814;BME280;29669;55.706;37.656;2023-12-07T05:51:24;102128.13;;;-9.02;77.19
43814;BME280;29669;55.706;37.656;2023-12-07T05:53:54;102117.19;;;-9.06;77.22
43814;BME280;29669;55.706;37.656;2023-12-07T05:56:22;102120.53;;;-9.07;77.21
43814;BME280;29669;55.706;37.656;2023-12-07T05:58:50;102125.66;;;-9.01;77.42
43814;BME280;29669;55.706;37.656;2023-12-07T06:01:18;102129.84;;;-8.98;77.42
43814;BME280;29669;55.706;37.656;2023-12-07T06:03:49;102118.13;;;-8.96;77.40
43814;BME280;29669;55.706;37.656;2023-12-07T06:06:16;102123.22;;;-8.93;77.27
43814;BME280;29669;55.706;37.656;2023-12-07T06:08:47;102140.84;;;-8.89;77.27
43814;BME280;29669;55.706;37.656;2023-12-07T06:11:15;102132.41;;;-8.94;77.05
43814;BME280;29669;55.706;37.656;2023-12-07T06:13:42;102132.41;;;-8.95;77.22
43814;BME280;29669;55.706;37.656;2023-12-07T06:16:13;102135.88;;;-8.83;77.19
43814;BME280;29669;55.706;37.656;2023-12-07T06:18:42;102139.19;;;-8.88;77.19
43814;BME280;29669;55.706;37.656;2023-12-07T06:21:10;102137.53;;;-8.86;77.31
43814;BME280;29669;55.706;37.656;2023-12-07T06:23:37;102142.63;;;-8.80;77.20
43814;BME280;29669;55.706;37.656;2023-12-07T06:26:05;102135.91;;;-8.80;77.38
43814;BME280;29669;55.706;37.656;2023-12-07T06:28:33;102142.72;;;-8.73;77.08
43814;BME280;29669;55.706;37.656;2023-12-07T06:31:07;102141.06;;;-8.69;76.88
43814;BME280;29669;55.706;37.656;2023-12-07T06:33:36;102131.00;;;-8.69;76.97
43814;BME280;29669;55.706;37.656;2023-12-07T06:36:04;102145.31;;;-8.65;76.99
43814;BME280;29669;55.706;37.656;2023-12-07T06:38:31;102129.41;;;-8.61;77.32
43814;BME280;29669;55.706;37.656;2023-12-07T06:40:59;102145.44;;;-8.50;77.15
43814;BME280;29669;55.706;37.656;2023-12-07T06:43:27;102147.25;;;-8.34;76.92
43814;BME280;29669;55.706;37.656;2023-12-07T06:45:55;102143.91;;;-8.33;76.82
43814;BME280;29669;55.706;37.656;2023-12-07T06:48:23;102149.00;;;-8.24;76.96
43814;BME280;29669;55.706;37.656;2023-12-07T06:50:51;102146.56;;;-8.12;76.95
43814;BME280;29669;55.706;37.656;2023-12-07T06:53:19;102140.69;;;-8.14;76.67
43814;BME280;29669;55.706;37.656;2023-12-07T06:55:46;102134.84;;;-8.05;76.90
43814;BME280;29669;55.706;37.656;2023-12-07T06:58:14;102141.66;;;-7.92;76.95
43814;BME280;29669;55.706;37.656;2023-12-07T07:00:42;102131.63;;;-7.83;76.78
43814;BME280;29669;55.706;37.656;2023-12-07T07:03:09;102135.09;;;-7.71;76.77
43814;BME280;29669;55.706;37.656;2023-12-07T07:05:37;102143.59;;;-7.52;76.58
43814;BME280;29669;55.706;37.656;2023-12-07T07:08:07;102131.03;;;-7.44;76.45
43814;BME280;29669;55.706;37.656;2023-12-07T07:10:35;102137.78;;;-7.37;76.27
43814;BME280;29669;55.706;37.656;2023-12-07T07:13:03;102131.06;;;-7.35;76.10
43814;BME280;29669;55.706;37.656;2023-12-07T07:15:32;102144.56;;;-7.24;76.25
43814;BME280;29669;55.706;37.656;2023-12-07T07:18:01;102137.88;;;-7.16;76.18
43814;BME280;29669;55.706;37.656;2023-12-07T07:20:29;102145.47;;;-7.07;76.09
43814;BME280;29669;55.706;37.656;2023-12-07T07:22:56;102145.47;;;-7.06;75.84
43814;BME280;29669;55.706;37.656;2023-12-07T07:25:24;102141.25;;;-7.08;75.90
43814;BME280;29669;55.706;37.656;2023-12-07T07:27:52;102132.88;;;-7.04;75.90
43814;BME280;29669;55.706;37.656;2023-12-07T07:30:22;102132.03;;;-7.05;75.80
43814;BME280;29669;55.706;37.656;2023-12-07T07:32:52;102142.13;;;-7.06;76.02
43814;BME280;29669;55.706;37.656;2023-12-07T07:35:20;102141.25;;;-7.04;76.05
43814;BME280;29669;55.706;37.656;2023-12-07T07:37:48;102144.66;;;-6.97;76.13
43814;BME280;29669;55.706;37.656;2023-12-07T07:40:17;102146.34;;;-6.90;76.00
43814;BME280;29669;55.706;37.656;2023-12-07T07:42:45;102150.56;;;-6.83;76.06
43814;BME280;29669;55.706;37.656;2023-12-07T07:45:16;102153.94;;;-6.84;75.73
43814;BME280;29669;55.706;37.656;2023-12-07T07:47:43;102148.88;;;-6.89;75.69
43814;BME280;29669;55.706;37.656;2023-12-07T07:50:11;102149.69;;;-6.94;75.66
43814;BME280;29669;55.706;37.656;2023-12-07T07:52:39;102160.66;;;-6.97;75.58
43814;BME280;29669;55.706;37.656;2023-12-07T07:55:14;102152.22;;;-7.06;75.47
43814;BME280;29669;55.706;37.656;2023-12-07T07:57:46;102159.78;;;-7.08;75.57
43814;BME280;29669;55.706;37.656;2023-12-07T08:00:30;102147.09;;;-7.17;75.57
43814;BME280;29669;55.706;37.656;2023-12-07T08:03:03;102153.00;;;-7.13;75.62
43814;BME280;29669;55.706;37.656;2023-12-07T08:05:30;102155.53;;;-7.18;75.59
43814;BME280;29669;55.706;37.656;2023-12-07T08:07:58;102161.44;;;-7.17;75.65
43814;BME280;29669;55.706;37.656;2023-12-07T08:10:27;102174.84;;;-7.18;75.92
43814;BME280;29669;55.706;37.656;2023-12-07T08:12:55;102173.19;;;-7.19;75.72
43814;BME280;29669;55.706;37.656;2023-12-07T08:17:05;102173.97;;;-7.31;76.00
43814;BME280;29669;55.706;37.656;2023-12-07T08:20:27;102164.66;;;-7.39;76.07
43814;BME280;29669;55.706;37.656;2023-12-07T08:22:55;102167.16;;;-7.48;75.80
43814;BME280;29669;55.706;37.656;2023-12-07T08:25:23;102174.72;;;-7.48;76.21
43814;BME280;29669;55.706;37.656;2023-12-07T08:27:53;102172.22;;;-7.41;76.22
43814;BME280;29669;55.706;37.656;2023-12-07T08:30:27;102168.81;;;-7.49;76.35
43814;BME280;29669;55.706;37.656;2023-12-07T08:33:03;102176.44;;;-7.40;76.51
43814;BME280;29669;55.706;37.656;2023-12-07T08:35:54;102172.19;;;-7.48;76.28
43814;BME280;29669;55.706;37.656;2023-12-07T08:38:47;102151.97;;;-7.54;76.34
43814;BME280;29669;55.706;37.656;2023-12-07T08:41:53;102162.94;;;-7.49;76.70
43814;BME280;29669;55.706;37.656;2023-12-07T08:44:31;102157.91;;;-7.49;76.43
43814;BME280;29669;55.706;37.656;2023-12-07T08:47:24;102158.81;;;-7.38;76.73
43814;BME280;29669;55.706;37.656;2023-12-07T08:49:55;102147.94;;;-7.25;76.70
43814;BME280;29669;55.706;37.656;2023-12-07T08:52:23;102149.59;;;-7.24;76.46
43814;BME280;29669;55.706;37.656;2023-12-07T08:55:48;102160.56;;;-7.18;76.00
43814;BME280;29669;55.706;37.656;2023-12-07T08:58:16;102145.41;;;-7.22;76.34
43814;BME280;29669;55.706;37.656;2023-12-07T09:05:55;102152.88;;;-7.43;76.55
43814;BME280;29669;55.706;37.656;2023-12-07T09:08:27;102146.13;;;-7.49;76.74
43814;BME280;29669;55.706;37.656;2023-12-07T09:28:18;102149.66;;;-7.09;76.18
43814;BME280;29669;55.706;37.656;2023-12-07T09:31:13;102149.69;;;-7.08;75.77
43814;BME280;29669;55.706;37.656;2023-12-07T09:33:50;102147.97;;;-7.07;75.96
43814;BME280;29669;55.706;37.656;2023-12-07T09:36:22;102137.09;;;-6.99;75.85
43814;BME280;29669;55.706;37.656;2023-12-07T09:38:52;102147.19;;;-6.94;75.84
43814;BME280;29669;55.706;37.656;2023-12-07T09:41:32;102143.00;;;-6.86;75.70
43814;BME280;29669;55.706;37.656;2023-12-07T09:44:00;102144.69;;;-6.82;75.46
43814;BME280;29669;55.706;37.656;2023-12-07T09:46:28;102150.56;;;-6.85;75.96
43814;BME280;29669;55.706;37.656;2023-12-07T09:48:57;102143.81;;;-6.99;75.64
43814;BME280;29669;55.706;37.656;2023-12-07T09:51:26;102136.25;;;-7.02;75.65
43814;BME280;29669;55.706;37.656;2023-12-07T09:54:00;102140.41;;;-7.07;75.74
43814;BME280;29669;55.706;37.656;2023-12-07T10:00:50;102134.50;;;-7.11;75.75
43814;BME280;29669;55.706;37.656;2023-12-07T10:03:26;102148.03;;;-6.95;75.93
43814;BME280;29669;55.706;37.656;2023-12-07T10:05:55;102153.16;;;-6.59;75.74
43814;BME280;29669;55.706;37.656;2023-12-07T10:08:30;102140.53;;;-6.50;75.34
43814;BME280;29669;55.706;37.656;2023-12-07T10:11:03;102135.50;;;-6.29;75.20
43814;BME280;29669;55.706;37.656;2023-12-07T10:13:36;102154.88;;;-6.22;74.72
43814;BME280;29669;55.706;37.656;2023-12-07T10:16:13;102154.88;;;-6.40;74.86
43814;BME280;29669;55.706;37.656;2023-12-07T10:23:47;102148.97;;;-6.64;75.27
43814;BME280;29669;55.706;37.656;2023-12-07T10:26:52;102134.63;;;-6.73;75.11
43814;BME280;29669;55.706;37.656;2023-12-07T10:29:30;102147.25;;;-6.75;75.30
43814;BME280;29669;55.706;37.656;2023-12-07T10:32:02;102158.19;;;-6.74;75.25
43814;BME280;29669;55.706;37.656;2023-12-07T10:34:32;102147.22;;;-6.85;75.38
43814;BME280;29669;55.706;37.656;2023-12-07T10:37:04;102149.72;;;-6.88;75.39
43814;BME280;29669;55.706;37.656;2023-12-07T10:39:34;102155.59;;;-6.94;75.26
43814;BME280;29669;55.706;37.656;2023-12-07T10:42:06;102146.28;;;-7.11;75.32
43814;BME280;29669;55.706;37.656;2023-12-07T10:44:41;102157.25;;;-7.08;75.61
43814;BME280;29669;55.706;37.656;2023-12-07T10:47:10;102153.03;;;-7.07;75.64
43814;BME280;29669;55.706;37.656;2023-12-07T10:49:40;102148.81;;;-7.13;75.60
43814;BME280;29669;55.706;37.656;2023-12-07T10:52:15;102159.72;;;-7.15;75.80
43814;BME280;29669;55.706;37.656;2023-12-07T10:54:50;102164.78;;;-7.12;75.95
43814;BME280;29669;55.706;37.656;2023-12-07T10:57:21;102152.19;;;-7.14;75.27
43814;BME280;29669;55.706;37.656;2023-12-07T10:59:53;102152.19;;;-7.14;75.53
43814;BME280;29669;55.706;37.656;2023-12-07T11:02:29;102168.19;;;-7.01;75.18
43814;BME280;29669;55.706;37.656;2023-12-07T11:05:00;102170.75;;;-6.94;75.41
43814;BME280;29669;55.706;37.656;2023-12-07T11:08:05;102167.41;;;-6.87;75.38
43814;BME280;29669;55.706;37.656;2023-12-07T11:10:57;102153.94;;;-6.86;75.37
43814;BME280;29669;55.706;37.656;2023-12-07T11:13:36;102159.84;;;-6.79;74.95
43814;BME280;29669;55.706;37.656;2023-12-07T11:16:50;102161.53;;;-6.77;74.99
43814;BME280;29669;55.706;37.656;2023-12-07T11:22:05;102173.31;;;-6.77;74.78
43814;BME280;29669;55.706;37.656;2023-12-07T11:24:33;102164.06;;;-6.86;74.83
43814;BME280;29669;55.706;37.656;2023-12-07T11:27:01;102161.53;;;-6.87;74.98
43814;BME280;29669;55.706;37.656;2023-12-07T11:29:30;102166.56;;;-6.87;74.92
43814;BME280;29669;55.706;37.656;2023-12-07T11:32:02;102156.47;;;-6.81;75.09
43814;BME280;29669;55.706;37.656;2023-12-07T11:34:43;102154.78;;;-6.82;75.08
43814;BME280;29669;55.706;37.656;2023-12-07T11:37:15;102157.34;;;-6.78;75.14
43814;BME280;29669;55.706;37.656;2023-12-07T11:39:48;102167.47;;;-6.67;75.14
43814;BME280;29669;55.706;37.656;2023-12-07T11:42:20;102172.53;;;-6.62;75.01
43814;BME280;29669;55.706;37.656;2023-12-07T11:44:50;102153.97;;;-6.69;74.96
43814;BME280;29669;55.706;37.656;2023-12-07T11:47:21;102165.75;;;-6.69;74.92
43814;BME280;29669;55.706;37.656;2023-12-07T11:49:49;102166.63;;;-6.72;75.15
43814;BME280;29669;55.706;37.656;2023-12-07T11:52:18;102153.16;;;-6.74;75.34
43814;BME280;29669;55.706;37.656;2023-12-07T11:54:48;102159.88;;;-6.68;75.23
43814;BME280;29669;55.706;37.656;2023-12-07T11:57:17;102163.22;;;-6.71;75.27
43814;BME280;29669;55.706;37.656;2023-12-07T11:59:46;102158.16;;;-6.83;75.69
43814;BME280;29669;55.706;37.656;2023-12-07T12:02:17;102161.53;;;-6.78;75.73
43814;BME280;29669;55.706;37.656;2023-12-07T12:04:45;102157.34;;;-6.73;76.04
43814;BME280;29669;55.706;37.656;2023-12-07T12:07:13;102160.72;;;-6.71;75.71
43814;BME280;29669;55.706;37.656;2023-12-07T12:09:40;102171.63;;;-6.75;75.57
43814;BME280;29669;55.706;37.656;2023-12-07T12:12:11;102173.28;;;-6.83;75.57
43814;BME280;29669;55.706;37.656;2023-12-07T12:14:41;102165.66;;;-6.98;75.49
43814;BME280;29669;55.706;37.656;2023-12-07T12:17:09;102171.53;;;-7.08;75.35
43814;BME280;29669;55.706;37.656;2023-12-07T12:19:36;102168.09;;;-7.22;75.39
43814;BME280;29669;55.706;37.656;2023-12-07T12:22:05;102178.13;;;-7.37;75.58
43814;BME280;29669;55.706;37.656;2023-12-07T12:24:35;102167.09;;;-7.59;75.84
43814;BME280;29669;55.706;37.656;2023-12-07T12:27:05;102176.34;;;-7.55;76.25
43814;BME280;29669;55.706;37.656;2023-12-07T12:29:34;102159.50;;;-7.62;76.18
43814;BME280;29669;55.706;37.656;2023-12-07T12:32:14;102169.59;;;-7.60;76.24
43814;BME280;29669;55.706;37.656;2023-12-07T12:34:55;102167.09;;;-7.57;76.49
43814;BME280;29669;55.706;37.656;2023-12-07T12:37:26;102178.84;;;-7.58;76.25
43814;BME280;29669;55.706;37.656;2023-12-07T12:39:54;102161.16;;;-7.65;76.35
43814;BME280;29669;55.706;37.656;2023-12-07T12:42:33;102163.69;;;-7.68;76.05
43814;BME280;29669;55.706;37.656;2023-12-07T12:45:03;102171.19;;;-7.72;76.45
43814;BME280;29669;55.706;37.656;2023-12-07T12:51:33;102182.09;;;-7.77;76.71
43814;BME280;29669;55.706;37.656;2023-12-07T12:55:12;102177.91;;;-7.74;76.83
43814;BME280;29669;55.706;37.656;2023-12-07T12:59:20;102169.53;;;-7.70;76.61
43814;BME280;29669;55.706;37.656;2023-12-07T13:08:16;102182.13;;;-7.70;76.55
43814;BME280;29669;55.706;37.656;2023-12-07T13:16:35;102195.75;;;-7.43;76.43
43814;BME280;29669;55.706;37.656;2023-12-07T13:21:07;102197.44;;;-7.38;76.33
43814;BME280;29669;55.706;37.656;2023-12-07T13:42:56;102200.88;;;-7.34;75.63
43814;BME280;29669;55.706;37.656;2023-12-07T13:45:23;102193.25;;;-7.40;75.76
43814;BME280;29669;55.706;37.656;2023-12-07T13:47:51;102189.88;;;-7.44;75.87
43814;BME280;29669;55.706;37.656;2023-12-07T13:50:19;102187.38;;;-7.39;75.81
43814;BME280;29669;55.706;37.656;2023-12-07T13:52:46;102194.94;;;-7.38;75.82
43814;BME280;29669;55.706;37.656;2023-12-07T13:55:15;102190.75;;;-7.36;75.83
43814;BME280;29669;55.706;37.656;2023-12-07T13:57:42;102188.25;;;-7.34;75.90
43814;BME280;29669;55.706;37.656;2023-12-07T14:00:10;102189.88;;;-7.42;76.13
43814;BME280;29669;55.706;37.656;2023-12-07T14:02:40;102191.59;;;-7.38;76.08
43814;BME280;29669;55.706;37.656;2023-12-07T14:05:09;102192.41;;;-7.44;76.23
43814;BME280;29669;55.706;37.656;2023-12-07T14:07:37;102186.53;;;-7.38;76.39
43814;BME280;29669;55.706;37.656;2023-12-07T14:10:05;102183.22;;;-7.31;76.47
43814;BME280;29669;55.706;37.656;2023-12-07T14:12:33;102189.16;;;-7.23;76.08
43814;BME280;29669;55.706;37.656;2023-12-07T14:15:01;102199.28;;;-7.17;76.02